createdAt,value
2022-12-08T00:03:49.601Z,4.40
2022-12-08T00:08:16.362Z,4.40
2022-12-08T00:12:25.084Z,4.40
2022-12-08T00:16:33.681Z,4.40
2022-12-08T00:20:42.199Z,4.40
2022-12-08T00:24:50.743Z,4.40
2022-12-08T00:28:59.307Z,4.30
2022-12-08T00:33:07.921Z,4.30
2022-12-08T00:37:16.547Z,4.30
2022-12-08T00:41:44.836Z,4.30
2022-12-08T00:46:12.775Z,4.30
2022-12-08T00:50:40.809Z,4.30
2022-12-08T00:54:49.431Z,4.30
2022-12-08T00:59:17.332Z,4.30
2022-12-08T01:03:25.978Z,4.30
2022-12-08T01:07:34.673Z,4.20
2022-12-08T01:11:44.426Z,4.20
2022-12-08T01:15:53.055Z,4.20
2022-12-08T01:20:02.339Z,4.20
2022-12-08T01:24:16.090Z,4.10
2022-12-08T01:28:24.652Z,4.10
2022-12-08T01:32:33.305Z,4.10
2022-12-08T01:36:43.773Z,4.10
2022-12-08T01:40:52.405Z,4.10
2022-12-08T01:45:27.504Z,4.20
2022-12-08T01:49:37.416Z,4.10
2022-12-08T01:53:46.347Z,4.10
2022-12-08T01:57:58.582Z,4.20
2022-12-08T02:02:07.221Z,4.20
2022-12-08T02:06:17.195Z,4.20
2022-12-08T02:10:27.982Z,4.20
2022-12-08T02:14:36.762Z,4.20
2022-12-08T02:19:31.672Z,4.30
2022-12-08T02:23:31.275Z,4.20
2022-12-08T02:28:14.550Z,4.20
2022-12-08T02:32:51.692Z,4.20
2022-12-08T02:37:30.978Z,4.30
2022-12-08T02:41:48.623Z,4.30
2022-12-08T02:46:24.109Z,4.30
2022-12-08T02:50:33.265Z,4.30
2022-12-08T02:54:44.959Z,4.30
2022-12-08T02:59:32.400Z,4.30
2022-12-08T03:03:46.922Z,4.30
2022-12-08T03:07:58.570Z,4.30
2022-12-08T03:12:13.334Z,4.30
2022-12-08T03:16:27.723Z,4.30
2022-12-08T03:20:37.861Z,4.30
2022-12-08T03:24:47.571Z,4.30
2022-12-08T03:28:56.371Z,4.30
2022-12-08T03:33:13.777Z,4.30
2022-12-08T03:37:22.883Z,4.30
2022-12-08T03:41:50.869Z,4.30
2022-12-08T03:45:59.564Z,4.30
2022-12-08T03:50:08.994Z,4.40
2022-12-08T03:54:17.677Z,4.40
2022-12-08T03:58:26.248Z,4.40
2022-12-08T04:02:35.064Z,4.40
2022-12-08T04:06:43.768Z,4.40
2022-12-08T04:10:52.292Z,4.40
2022-12-08T04:15:00.919Z,4.40
2022-12-08T04:19:09.655Z,4.40
2022-12-08T04:23:18.292Z,4.50
2022-12-08T04:27:26.866Z,4.50
2022-12-08T04:31:35.495Z,4.50
2022-12-08T04:35:44.113Z,4.50
2022-12-08T04:39:52.695Z,4.50
2022-12-08T04:44:01.322Z,4.50
2022-12-08T04:48:12.399Z,4.50
2022-12-08T04:52:21.143Z,4.50
2022-12-08T04:56:29.766Z,4.40
2022-12-08T05:00:38.398Z,4.40
2022-12-08T05:04:47.026Z,4.40
2022-12-08T05:08:56.369Z,4.40
2022-12-08T05:13:05.100Z,4.40
2022-12-08T05:17:13.732Z,4.40
2022-12-08T05:21:22.357Z,4.40
2022-12-08T05:25:31.089Z,4.40
2022-12-08T05:29:39.665Z,4.40
2022-12-08T05:33:49.962Z,4.40
2022-12-08T05:37:58.614Z,4.40
2022-12-08T05:42:07.344Z,4.40
2022-12-08T05:46:16.129Z,4.40
2022-12-08T05:50:48.578Z,4.50
2022-12-08T05:54:57.150Z,4.40
2022-12-08T05:59:18.425Z,4.50
2022-12-08T06:03:27.101Z,4.50
2022-12-08T06:07:36.188Z,4.40
2022-12-08T06:11:46.452Z,4.40
2022-12-08T06:15:55.186Z,4.50
2022-12-08T06:20:04.690Z,4.40
2022-12-08T06:24:13.670Z,4.40
2022-12-08T06:28:22.302Z,4.40
2022-12-08T06:32:31.065Z,4.40
2022-12-08T06:36:39.862Z,4.40
2022-12-08T06:40:56.546Z,4.40
2022-12-08T06:45:06.060Z,4.40
2022-12-08T06:49:14.762Z,4.40
2022-12-08T06:53:23.388Z,4.40
2022-12-08T06:57:33.555Z,4.40
2022-12-08T07:01:43.002Z,4.40
2022-12-08T07:05:53.180Z,4.40
2022-12-08T07:10:02.053Z,4.30
2022-12-08T07:14:30.289Z,4.40
2022-12-08T07:18:39.578Z,4.30
2022-12-08T07:22:52.163Z,4.30
2022-12-08T07:27:00.725Z,4.20
2022-12-08T07:31:11.996Z,4.30
2022-12-08T07:35:21.571Z,4.30
2022-12-08T07:39:30.764Z,4.20
2022-12-08T07:43:39.908Z,4.10
2022-12-08T07:48:08.093Z,4.10
2022-12-08T07:52:16.927Z,4.00
2022-12-08T07:56:44.810Z,4.10
2022-12-08T08:00:54.194Z,4.10
2022-12-08T08:05:03.111Z,4.10
2022-12-08T08:09:11.821Z,4.10
2022-12-08T08:13:20.430Z,4.10
2022-12-08T08:17:30.573Z,4.10
2022-12-08T08:21:46.663Z,4.10
2022-12-08T08:25:49.867Z,4.10
2022-12-08T08:29:58.501Z,4.10
2022-12-08T08:34:07.302Z,4.10
2022-12-08T08:38:16.213Z,4.10
2022-12-08T08:42:24.842Z,4.00
2022-12-08T08:46:33.937Z,4.10
2022-12-08T08:50:42.611Z,4.10
2022-12-08T08:54:51.240Z,4.10
2022-12-08T08:58:59.775Z,4.10
2022-12-08T09:03:08.702Z,4.10
2022-12-08T09:07:18.661Z,4.10
2022-12-08T09:11:27.240Z,4.10
2022-12-08T09:15:36.007Z,4.20
2022-12-08T09:19:44.653Z,4.20
2022-12-08T09:23:56.691Z,4.10
2022-12-08T09:28:06.184Z,4.20
2022-12-08T09:32:14.761Z,4.20
2022-12-08T09:36:23.464Z,4.20
2022-12-08T09:40:35.064Z,4.30
2022-12-08T09:45:09.096Z,4.20
2022-12-08T09:49:20.909Z,4.20
2022-12-08T09:53:35.707Z,4.30
2022-12-08T09:57:42.961Z,4.30
2022-12-08T10:01:52.702Z,4.30
2022-12-08T10:06:22.130Z,4.20
2022-12-08T10:10:42.562Z,4.10
2022-12-08T10:14:54.341Z,4.10
2022-12-08T10:19:12.388Z,4.20
2022-12-08T10:23:36.380Z,4.20
2022-12-08T10:27:47.564Z,4.20
2022-12-08T10:31:59.549Z,4.20
2022-12-08T10:36:10.604Z,4.30
2022-12-08T10:40:19.754Z,4.30
2022-12-08T10:44:28.838Z,4.30
2022-12-08T10:48:37.366Z,4.30
2022-12-08T10:52:46.865Z,4.30
2022-12-08T10:56:57.370Z,4.30
2022-12-08T11:01:25.811Z,4.40
2022-12-08T11:05:36.462Z,4.40
2022-12-08T11:09:51.435Z,4.40
2022-12-08T11:14:01.521Z,4.30
2022-12-08T11:18:29.164Z,4.30
2022-12-08T11:22:47.425Z,4.20
2022-12-08T11:27:02.496Z,4.10
2022-12-08T11:31:14.825Z,3.90
2022-12-08T11:35:33.337Z,3.90
2022-12-08T11:39:45.509Z,3.90
2022-12-08T11:44:09.582Z,3.80
2022-12-08T11:48:20.940Z,3.70
2022-12-08T11:52:35.672Z,3.80
2022-12-08T11:56:47.294Z,3.80
2022-12-08T12:00:56.730Z,3.90
2022-12-08T12:05:17.386Z,3.90
2022-12-08T12:09:30.303Z,3.90
2022-12-08T12:13:57.024Z,3.90
2022-12-08T12:18:21.085Z,3.90
2022-12-08T12:22:32.745Z,3.90
2022-12-08T12:26:56.640Z,3.90
2022-12-08T12:31:08.424Z,3.80
2022-12-08T12:35:29.302Z,3.90
2022-12-08T12:39:57.592Z,3.90
2022-12-08T12:44:36.006Z,4.00
2022-12-08T12:48:45.455Z,3.90
2022-12-08T12:53:20.108Z,3.90
2022-12-08T12:57:41.319Z,3.90
2022-12-08T13:02:16.689Z,3.90
2022-12-08T13:06:28.261Z,3.90
2022-12-08T13:10:42.439Z,4.00
2022-12-08T13:14:53.326Z,4.00
2022-12-08T13:19:07.909Z,4.00
2022-12-08T13:23:40.694Z,4.00
2022-12-08T13:27:56.088Z,4.00
2022-12-08T13:32:07.713Z,4.00
2022-12-08T13:36:26.699Z,4.20
2022-12-08T13:40:38.022Z,4.20
2022-12-08T13:54:35.434Z,4.20
2022-12-08T13:57:45.149Z,4.10
2022-12-08T14:01:53.855Z,4.00
2022-12-08T14:06:13.249Z,4.00
2022-12-08T14:10:23.581Z,4.10
2022-12-08T14:15:02.604Z,4.20
2022-12-08T14:18:55.539Z,4.30
2022-12-08T14:23:24.500Z,4.20
2022-12-08T14:27:37.868Z,4.20
2022-12-08T14:31:46.449Z,4.20
2022-12-08T14:35:56.777Z,4.10
2022-12-08T14:40:08.223Z,4.10
2022-12-08T14:44:25.082Z,4.00
2022-12-08T14:48:36.734Z,4.00
2022-12-08T14:53:04.832Z,3.90
2022-12-08T14:57:16.496Z,4.00
2022-12-08T15:01:26.660Z,4.10
2022-12-08T15:05:36.547Z,4.30
2022-12-08T15:09:48.890Z,4.30
2022-12-08T15:13:57.700Z,4.30
2022-12-08T15:18:31.824Z,4.30
2022-12-08T15:23:00.018Z,4.30
2022-12-08T15:27:10.742Z,4.30
2022-12-08T15:31:20.201Z,4.40
2022-12-08T15:35:29.230Z,4.40
2022-12-08T15:39:40.036Z,4.30
2022-12-08T15:43:48.607Z,4.40
2022-12-08T15:47:57.672Z,4.30
2022-12-08T15:52:27.242Z,4.30
2022-12-08T15:56:45.329Z,4.30
2022-12-08T16:00:52.968Z,4.20
2022-12-08T16:05:40.417Z,4.20
2022-12-08T16:09:32.245Z,4.30
2022-12-08T16:13:58.457Z,4.30
2022-12-08T16:18:04.375Z,4.30
2022-12-08T16:31:02.468Z,4.20
2022-12-08T16:35:13.089Z,4.30
2022-12-08T16:39:21.748Z,4.30
2022-12-08T16:43:32.250Z,4.30
2022-12-08T16:47:43.816Z,4.30
2022-12-08T16:51:52.528Z,4.30
2022-12-08T16:56:01.094Z,4.40
2022-12-08T17:00:13.500Z,4.40
2022-12-08T17:04:31.293Z,4.40
2022-12-08T17:08:51.598Z,4.40
2022-12-08T17:13:21.540Z,4.40
2022-12-08T17:17:30.168Z,4.40
2022-12-08T17:21:38.978Z,4.40
2022-12-08T17:26:01.177Z,4.40
2022-12-08T17:30:11.779Z,4.40
2022-12-08T17:34:20.369Z,4.40
2022-12-08T17:38:28.934Z,4.40
2022-12-08T17:42:38.677Z,4.40
2022-12-08T17:46:52.598Z,4.40
2022-12-08T17:51:18.518Z,4.40
2022-12-08T17:55:27.167Z,4.30
2022-12-08T17:59:35.982Z,4.30
2022-12-08T18:03:44.510Z,4.30
2022-12-08T18:07:53.297Z,4.30
2022-12-08T18:12:01.950Z,4.30
2022-12-08T18:16:11.011Z,4.30
2022-12-08T18:20:20.050Z,4.20
2022-12-08T18:24:28.613Z,4.20
2022-12-08T18:28:39.065Z,4.20
2022-12-08T18:33:07.442Z,4.20
2022-12-08T18:37:16.043Z,4.20
2022-12-08T18:41:26.847Z,4.10
2022-12-08T18:45:37.381Z,4.10
2022-12-08T18:49:46.366Z,4.10
2022-12-08T18:53:54.983Z,4.10
2022-12-08T18:58:03.512Z,4.10
2022-12-08T19:02:13.136Z,4.10
2022-12-08T19:06:22.823Z,4.10
2022-12-08T19:10:32.366Z,4.00
2022-12-08T19:14:42.285Z,4.00
2022-12-08T19:18:50.864Z,3.90
2022-12-08T19:22:59.432Z,3.90
2022-12-08T19:27:07.980Z,3.80
2022-12-08T19:31:18.429Z,3.70
2022-12-08T19:35:26.991Z,3.70
2022-12-08T19:39:55.160Z,3.70
2022-12-08T19:44:21.849Z,3.70
2022-12-08T19:48:49.751Z,3.70
2022-12-08T19:52:59.386Z,3.60
2022-12-08T19:57:08.110Z,3.60
2022-12-08T20:01:17.973Z,3.60
2022-12-08T20:05:27.105Z,3.60
2022-12-08T20:09:35.738Z,3.60
2022-12-08T20:13:45.935Z,3.60
2022-12-08T20:17:54.623Z,3.60
2022-12-08T20:22:03.493Z,3.60
2022-12-08T20:26:14.153Z,3.60
2022-12-08T20:30:43.832Z,3.60
2022-12-08T20:34:52.520Z,3.60
2022-12-08T20:39:01.324Z,3.70
2022-12-08T20:43:09.874Z,3.70
2022-12-08T20:47:18.566Z,3.70
2022-12-08T20:51:31.867Z,3.70
2022-12-08T20:55:39.527Z,3.70
2022-12-08T20:59:48.112Z,3.70
2022-12-08T21:04:16.758Z,3.70
2022-12-08T21:08:26.066Z,3.60
2022-12-08T21:12:34.988Z,3.70
2022-12-08T21:16:43.747Z,3.60
2022-12-08T21:20:53.160Z,3.70
2022-12-08T21:25:01.947Z,3.70
2022-12-08T21:29:12.847Z,3.70
2022-12-08T21:33:21.468Z,3.80
2022-12-08T21:37:30.482Z,3.70
2022-12-08T21:42:16.616Z,3.70
2022-12-08T21:46:25.300Z,3.70
2022-12-08T21:50:33.983Z,3.70
2022-12-08T21:54:42.949Z,3.80
2022-12-08T21:58:51.664Z,3.80
2022-12-08T22:03:00.489Z,3.70
2022-12-08T22:07:09.539Z,3.70
2022-12-08T22:11:19.319Z,3.80
2022-12-08T22:15:30.024Z,3.80
2022-12-08T22:19:38.822Z,3.80
2022-12-08T22:23:47.603Z,3.80
2022-12-08T22:27:56.633Z,3.80
2022-12-08T22:32:05.822Z,3.80
2022-12-08T22:36:20.403Z,3.80
2022-12-08T22:40:29.290Z,3.80
2022-12-08T22:44:38.416Z,3.80
2022-12-08T22:48:47.960Z,3.70
2022-12-08T22:52:56.973Z,3.70
2022-12-08T22:57:05.817Z,3.70
2022-12-08T23:01:29.666Z,3.70
2022-12-08T23:05:40.590Z,3.70
2022-12-08T23:09:49.237Z,3.70
2022-12-08T23:14:02.590Z,3.70
2022-12-08T23:18:16.345Z,3.70
2022-12-08T23:22:24.985Z,3.70
2022-12-08T23:26:35.351Z,3.70
2022-12-08T23:30:44.254Z,3.70
2022-12-08T23:34:52.861Z,3.60
2022-12-08T23:39:01.515Z,3.70
2022-12-08T23:43:10.079Z,3.70
2022-12-08T23:47:19.204Z,3.70
2022-12-08T23:51:28.739Z,3.70
2022-12-08T23:55:37.588Z,3.70
2022-12-08T23:59:47.704Z,3.80
